Time;durP1;ratioP1;P1;durP2;ratioP2;P2;SDS_P1;SDS_P2;PMS_P1;PMS_P2;Temp;Humidity;BMP_temperature;BMP_pressure;BME280_temperature;BME280_humidity;BME280_pressure;Samples;Min_cycle;Max_cycle;Signal;HPM_P1;HPM_P2
2021/03/16 00:00:53;;;;;;;;;;;;;;;-0.52;99.62;93162.59;1040554;57;20185;-81
2021/03/16 00:01:53;;;;;;;;;;;;;;;-0.43;98.95;93168.41;1048785;56;20172;-82
2021/03/16 00:02:54;;;;;;;;;;;;;;;-0.45;98.49;93167.22;1049018;56;20207;-83
2021/03/16 00:03:54;;;;;;;;;;;;;;;-0.45;99.33;93167.22;1041891;57;20175;-81
2021/03/16 00:04:54;;;;;;;;;;;;;;;-0.52;100.00;93168.59;1042544;57;20296;-82
2021/03/16 00:05:55;;;;;;;;;;;;;;;-0.51;100.00;93172.75;1041278;57;20302;-81
2021/03/16 00:06:55;;;;;;;;;;;;;;;-0.39;99.88;93171.87;1043148;57;20180;-81
2021/03/16 00:07:56;;;;;;;;;;;;;;;-0.42;99.21;93174.41;1042198;57;20162;-82
2021/03/16 00:08:56;;;;;;;;;;;;;;;-0.46;99.42;93165.69;1039762;57;20190;-82
2021/03/16 00:09:57;;;;;;;;;;;;;;;-0.50;99.58;93160.38;1043191;57;20222;-82
2021/03/16 00:10:57;;;;;;;;;;;;;;;-0.38;98.85;93177.88;1044168;57;20118;-81
2021/03/16 00:11:58;;;;;;;;;;;;;;;-0.53;99.40;93169.72;1046985;57;20193;-83
2021/03/16 00:12:58;;;;;;;;;;;;;;;-0.54;100.00;93172.66;1046922;57;20243;-81
2021/03/16 00:13:58;;;;;;;;;;;;;;;-0.50;100.00;93184.00;1043983;57;20168;-82
2021/03/16 00:14:59;;;;;;;;;;;;;;;-0.46;100.00;93182.22;1044424;57;20201;-81
2021/03/16 00:15:59;;;;;;;;;;;;;;;-0.49;99.68;93180.25;1042703;57;20168;-82
2021/03/16 00:16:59;;;;;;;;;;;;;;;-0.52;99.62;93173.09;1042270;57;20189;-80
2021/03/16 00:18:02;;;;;;;;;;;;;;;-0.47;99.65;93190.44;1048738;56;20256;-81
2021/03/16 00:19:03;;;;;;;;;;;;;;;-0.45;99.44;93185.59;1049185;56;20479;-82
2021/03/16 00:20:04;;;;;;;;;;;;;;;-0.46;100.00;93190.09;1048338;56;21346;-81
2021/03/16 00:21:04;;;;;;;;;;;;;;;-0.50;100.00;93186.63;1046546;57;20190;-80
2021/03/16 00:22:05;;;;;;;;;;;;;;;-0.60;100.00;93187.94;1046119;57;20188;-81
2021/03/16 00:23:07;;;;;;;;;;;;;;;-0.58;100.00;93182.31;1050595;56;20160;-82
2021/03/16 00:24:07;;;;;;;;;;;;;;;-0.61;100.00;93188.28;1050562;56;20914;-81
2021/03/16 00:25:08;;;;;;;;;;;;;;;-0.50;100.00;93189.25;1050613;56;20160;-81
2021/03/16 00:26:08;;;;;;;;;;;;;;;-0.57;100.00;93191.72;1048403;56;20184;-81
2021/03/16 00:27:08;;;;;;;;;;;;;;;-0.52;99.90;93189.59;1042354;57;20232;-82
2021/03/16 00:28:09;;;;;;;;;;;;;;;-0.51;98.95;93190.38;1046458;57;20157;-81
2021/03/16 00:29:09;;;;;;;;;;;;;;;-0.51;98.91;93185.88;1047608;56;20200;-81
2021/03/16 00:30:09;;;;;;;;;;;;;;;-0.52;99.53;93188.84;1049777;56;20184;-80
2021/03/16 00:31:10;;;;;;;;;;;;;;;-0.51;99.54;93191.12;1046541;57;20765;-81
2021/03/16 00:32:10;;;;;;;;;;;;;;;-0.52;99.47;93189.59;1046558;56;20634;-81
2021/03/16 00:33:10;;;;;;;;;;;;;;;-0.52;99.63;93188.84;1050558;56;20175;-83
2021/03/16 00:34:11;;;;;;;;;;;;;;;-0.49;99.43;93190.75;1045569;56;20177;-81
2021/03/16 00:35:12;;;;;;;;;;;;;;;-0.56;99.51;93180.91;1043896;57;20188;-81
2021/03/16 00:36:12;;;;;;;;;;;;;;;-0.54;99.27;93183.91;1046111;57;20278;-80
2021/03/16 00:37:12;;;;;;;;;;;;;;;-0.58;99.89;93185.72;1047816;56;20762;-80
2021/03/16 00:38:13;;;;;;;;;;;;;;;-0.58;100.00;93182.31;1048741;56;20207;-82
2021/03/16 00:39:13;;;;;;;;;;;;;;;-0.53;99.76;93179.44;1048144;56;20670;-81
2021/03/16 00:40:13;;;;;;;;;;;;;;;-0.52;98.88;93181.72;1047415;56;20152;-81
2021/03/16 00:41:14;;;;;;;;;;;;;;;-0.54;98.46;93185.78;1045982;57;20157;-82
2021/03/16 00:42:14;;;;;;;;;;;;;;;-0.57;98.89;93186.47;1046719;56;20188;-83
2021/03/16 00:43:14;;;;;;;;;;;;;;;-0.57;98.75;93186.47;1046251;56;20230;-83
2021/03/16 00:44:15;;;;;;;;;;;;;;;-0.56;98.33;93180.13;1046441;56;20110;-81
2021/03/16 00:45:15;;;;;;;;;;;;;;;-0.53;98.77;93187.31;1042437;57;20186;-82
2021/03/16 00:46:15;;;;;;;;;;;;;;;-0.62;98.65;93187.50;1045082;56;20193;-83
2021/03/16 00:47:16;;;;;;;;;;;;;;;-0.65;98.82;93190.06;1047616;56;20192;-81
2021/03/16 00:48:17;;;;;;;;;;;;;;;-0.63;98.45;93196.47;1046800;56;20314;-84
2021/03/16 00:49:17;;;;;;;;;;;;;;;-0.57;98.22;93194.34;1050068;56;20331;-84
2021/03/16 00:50:18;;;;;;;;;;;;;;;-0.64;98.64;93200.22;1049684;56;20253;-82
2021/03/16 00:51:19;;;;;;;;;;;;;;;-0.68;99.71;93196.00;1045993;57;20224;-82
2021/03/16 00:52:19;;;;;;;;;;;;;;;-0.70;99.84;93195.56;1048283;56;20578;-80
2021/03/16 00:53:20;;;;;;;;;;;;;;;-0.68;99.69;93206.50;1044057;57;20165;-83
2021/03/16 00:54:20;;;;;;;;;;;;;;;-0.67;99.63;93203.50;1044524;57;20270;-82
2021/03/16 00:55:20;;;;;;;;;;;;;;;-0.67;99.60;93198.28;1045100;57;20339;-80
2021/03/16 00:56:21;;;;;;;;;;;;;;;-0.63;99.49;93211.47;1041894;57;20343;-80
2021/03/16 00:57:21;;;;;;;;;;;;;;;-0.68;99.86;93207.25;1042374;57;20201;-83
2021/03/16 00:58:25;;;;;;;;;;;;;;;-0.64;99.63;93200.22;1042651;57;20620;-81
2021/03/16 00:59:25;;;;;;;;;;;;;;;-0.63;99.57;93204.34;1043099;56;20239;-81
2021/03/16 01:00:26;;;;;;;;;;;;;;;-0.67;100.00;93203.50;1048890;56;20204;-81
2021/03/16 01:01:26;;;;;;;;;;;;;;;-0.70;100.00;93208.69;1046252;57;20205;-81
2021/03/16 01:02:26;;;;;;;;;;;;;;;-0.64;100.00;93200.22;1041995;57;20201;-82
2021/03/16 01:03:27;;;;;;;;;;;;;;;-0.65;100.00;93201.31;1044119;57;20188;-82
2021/03/16 01:04:27;;;;;;;;;;;;;;;-0.59;100.00;93202.56;1044603;57;20189;-82
2021/03/16 01:05:27;;;;;;;;;;;;;;;-0.54;99.25;93207.53;1043965;57;20298;-81
2021/03/16 01:06:28;;;;;;;;;;;;;;;-0.49;98.03;93206.50;1046018;57;20204;-81
2021/03/16 01:07:28;;;;;;;;;;;;;;;-0.59;98.17;93199.94;1042653;57;20161;-81
2021/03/16 01:08:28;;;;;;;;;;;;;;;-0.62;98.96;93216.38;1043665;57;20339;-80
2021/03/16 01:09:29;;;;;;;;;;;;;;;-0.67;99.27;93205.38;1046454;57;20193;-82
2021/03/16 01:10:30;;;;;;;;;;;;;;;-0.68;100.00;93202.00;1045903;57;20670;-81
2021/03/16 01:11:30;;;;;;;;;;;;;;;-0.71;99.52;93205.31;1043300;57;20230;-81
2021/03/16 01:12:31;;;;;;;;;;;;;;;-0.63;99.63;93209.59;1041561;57;20298;-81
2021/03/16 01:13:31;;;;;;;;;;;;;;;-0.63;99.63;93209.59;1039875;57;20721;-81
2021/03/16 01:14:33;;;;;;;;;;;;;;;-0.65;99.50;93214.44;1042537;56;20332;-82
2021/03/16 01:15:33;;;;;;;;;;;;;;;-0.70;99.43;93206.84;1047896;56;20256;-82
2021/03/16 01:16:33;;;;;;;;;;;;;;;-0.68;99.16;93207.25;1043734;57;20177;-81
2021/03/16 01:17:34;;;;;;;;;;;;;;;-0.65;98.79;93206.56;1043866;57;20225;-81
2021/03/16 01:18:34;;;;;;;;;;;;;;;-0.63;98.19;93206.22;1044976;57;20213;-81
2021/03/16 01:19:34;;;;;;;;;;;;;;;-0.62;97.77;93208.50;1042410;57;20994;-83
2021/03/16 01:20:35;;;;;;;;;;;;;;;-0.68;98.19;93217.75;1043688;57;20157;-81
2021/03/16 01:21:35;;;;;;;;;;;;;;;-0.72;98.40;93206.41;1043876;57;20933;-80
2021/03/16 01:22:35;;;;;;;;;;;;;;;-0.65;97.66;93217.06;1041876;57;20205;-83
2021/03/16 01:23:36;;;;;;;;;;;;;;;-0.66;98.08;93201.66;1043802;57;20186;-82
2021/03/16 01:24:36;;;;;;;;;;;;;;;-0.65;98.59;93214.44;1038966;57;20275;-79
2021/03/16 01:25:37;;;;;;;;;;;;;;;-0.64;98.84;93207.34;1039600;57;20162;-80
2021/03/16 01:26:37;;;;;;;;;;;;;;;-0.60;97.20;93208.16;1043597;57;20192;-81
2021/03/16 01:27:38;;;;;;;;;;;;;;;-0.63;97.61;93209.59;1045639;57;20197;-81
2021/03/16 01:28:38;;;;;;;;;;;;;;;-0.63;97.43;93209.59;1045360;57;21014;-82
2021/03/16 01:29:39;;;;;;;;;;;;;;;-0.70;97.88;93214.72;1047457;56;20184;-80
2021/03/16 01:30:39;;;;;;;;;;;;;;;-0.66;97.16;93215.56;1043983;57;20243;-82
2021/03/16 01:31:39;;;;;;;;;;;;;;;-0.70;97.40;93204.22;1041412;57;20205;-81
2021/03/16 01:32:40;;;;;;;;;;;;;;;-0.64;97.07;93212.59;1043304;57;20189;-83
2021/03/16 01:33:40;;;;;;;;;;;;;;;-0.73;98.38;93209.37;1043452;57;20172;-82
2021/03/16 01:34:41;;;;;;;;;;;;;;;-0.68;98.83;93214.38;1045475;57;20325;-82
2021/03/16 01:35:41;;;;;;;;;;;;;;;-0.67;98.32;93208.00;1045934;57;20353;-82
2021/03/16 01:36:41;;;;;;;;;;;;;;;-0.69;98.36;93212.84;1043448;57;20290;-83
2021/03/16 01:37:42;;;;;;;;;;;;;;;-0.66;97.55;93220.81;1045722;57;20201;-81
2021/03/16 01:38:43;;;;;;;;;;;;;;;-0.69;97.09;93220.72;1045830;57;20354;-81
2021/03/16 01:39:45;;;;;;;;;;;;;;;-0.68;98.34;93212.50;1045674;57;20168;-83
2021/03/16 01:40:46;;;;;;;;;;;;;;;-0.73;98.08;93218.03;1045466;57;20664;-82
2021/03/16 01:41:46;;;;;;;;;;;;;;;-0.78;99.15;93210.41;1041475;57;20193;-82
2021/03/16 01:42:46;;;;;;;;;;;;;;;-0.70;98.88;93211.31;1041299;57;20766;-81
2021/03/16 01:43:47;;;;;;;;;;;;;;;-0.79;98.86;93206.25;1042033;57;20192;-82
2021/03/16 01:44:47;;;;;;;;;;;;;;;-0.75;97.91;93217.59;1045877;57;20311;-82
2021/03/16 01:45:48;;;;;;;;;;;;;;;-0.76;98.67;93216.81;1044273;57;20192;-80
2021/03/16 01:46:49;;;;;;;;;;;;;;;-0.71;98.37;93213.19;1045296;57;20215;-81
2021/03/16 01:47:50;;;;;;;;;;;;;;;-0.69;96.99;93210.22;1043941;57;20153;-83
2021/03/16 01:48:50;;;;;;;;;;;;;;;-0.68;98.18;93207.25;1043379;57;21070;-82
2021/03/16 01:49:53;;;;;;;;;;;;;;;-0.67;98.40;93216.63;1039930;57;20209;-81
2021/03/16 01:50:53;;;;;;;;;;;;;;;-0.68;97.92;93212.50;1041573;56;20221;-83
2021/03/16 01:51:54;;;;;;;;;;;;;;;-0.72;98.24;93216.16;1045236;56;20281;-82
2021/03/16 01:52:55;;;;;;;;;;;;;;;-0.70;97.43;93212.09;1047989;56;20211;-82
2021/03/16 01:53:55;;;;;;;;;;;;;;;-0.70;98.44;93219.19;1048372;56;20208;-81
2021/03/16 01:54:55;;;;;;;;;;;;;;;-0.67;97.95;93210.63;1044264;57;20677;-81
2021/03/16 01:55:57;;;;;;;;;;;;;;;-0.73;98.11;93212.00;1040890;57;20181;-82
2021/03/16 01:57:00;;;;;;;;;;;;;;;-0.73;97.68;93217.25;1044880;56;20773;-81
2021/03/16 01:58:00;;;;;;;;;;;;;;;-0.67;97.58;93221.12;1049459;56;20241;-81
2021/03/16 01:59:01;;;;;;;;;;;;;;;-0.69;97.73;93215.47;1049332;56;20164;-81
2021/03/16 02:00:02;;;;;;;;;;;;;;;-0.76;97.81;93211.56;1046629;56;20220;-80
2021/03/16 02:01:03;;;;;;;;;;;;;;;-0.78;98.86;93208.53;1043146;57;20642;-82
2021/03/16 02:02:04;;;;;;;;;;;;;;;-0.76;98.00;93210.81;1047870;56;20180;-81
2021/03/16 02:03:05;;;;;;;;;;;;;;;-0.81;98.67;93211.84;1047810;56;20175;-82
2021/03/16 02:04:05;;;;;;;;;;;;;;;-0.78;98.06;93205.16;1045071;56;20774;-80
2021/03/16 02:05:08;;;;;;;;;;;;;;;-0.80;98.73;93205.50;1047470;56;20157;-79
2021/03/16 02:06:13;;;;;;;;;;;;;;;-0.78;98.46;93208.53;1045387;56;20180;-83
2021/03/16 02:07:13;;;;;;;;;;;;;;;-0.75;99.16;93207.09;1045058;57;21077;-80
2021/03/16 02:08:41;;;;;;;;;;;;;;;-0.73;98.93;93201.50;1045972;57;20244;-82
2021/03/16 02:09:44;;;;;;;;;;;;;;;-0.70;97.74;93206.84;1047061;56;20188;-82
2021/03/16 02:10:53;;;;;;;;;;;;;;;-0.65;96.79;93209.19;1048073;56;20805;-82
2021/03/16 02:12:04;;;;;;;;;;;;;;;-0.65;97.29;93205.81;1045159;57;20211;-81
2021/03/16 02:13:10;;;;;;;;;;;;;;;-0.64;97.62;93218.59;1043918;57;20952;-82
2021/03/16 02:14:16;;;;;;;;;;;;;;;-0.65;96.08;93211.81;1045534;56;20283;-83
2021/03/16 02:15:20;;;;;;;;;;;;;;;-0.68;97.32;93211.75;1047876;56;20220;-82
2021/03/16 02:16:27;;;;;;;;;;;;;;;-0.70;97.94;93213.94;1047910;56;20228;-81
2021/03/16 02:17:29;;;;;;;;;;;;;;;-0.72;97.37;93214.28;1044515;57;20200;-81
2021/03/16 02:18:33;;;;;;;;;;;;;;;-0.68;97.61;93212.50;1046458;56;20224;-82
2021/03/16 02:19:36;;;;;;;;;;;;;;;-0.68;97.75;93201.25;1048629;56;20230;-80
2021/03/16 02:21:02;;;;;;;;;;;;;;;-0.67;98.36;93208.00;1048325;56;20256;-82
2021/03/16 02:22:03;;;;;;;;;;;;;;;-0.76;99.12;93206.31;1047613;56;20203;-82
2021/03/16 02:23:05;;;;;;;;;;;;;;;-0.79;99.01;93209.66;1044292;57;20220;-82
2021/03/16 02:24:05;;;;;;;;;;;;;;;-0.78;99.54;93210.41;1046343;56;20718;-82
2021/03/16 02:25:24;;;;;;;;;;;;;;;-0.77;99.66;93217.19;1046994;57;20156;-82
2021/03/16 02:26:27;;;;;;;;;;;;;;;-0.77;100.00;93217.94;1045808;56;20853;-81
2021/03/16 02:27:28;;;;;;;;;;;;;;;-0.76;98.90;93211.56;1048608;56;20179;-81
2021/03/16 02:28:28;;;;;;;;;;;;;;;-0.79;99.07;93212.28;1048297;56;20196;-81
2021/03/16 02:29:40;;;;;;;;;;;;;;;-0.80;99.37;93217.84;1044199;57;20220;-82
2021/03/16 02:30:42;;;;;;;;;;;;;;;-0.81;98.79;93218.97;1042048;57;20220;-81
2021/03/16 02:31:44;;;;;;;;;;;;;;;-0.86;98.41;93219.97;1046200;56;20302;-81
2021/03/16 02:32:45;;;;;;;;;;;;;;;-0.79;98.70;93217.53;1049926;56;20753;-82
2021/03/16 02:33:47;;;;;;;;;;;;;;;-0.77;98.51;93225.03;1050636;56;21126;-80
2021/03/16 02:34:49;;;;;;;;;;;;;;;-0.76;97.21;93221.31;1046173;57;20203;-81
2021/03/16 02:35:50;;;;;;;;;;;;;;;-0.80;98.10;93218.59;1045891;56;20161;-81
2021/03/16 02:36:52;;;;;;;;;;;;;;;-0.82;99.08;93227.94;1049992;56;20945;-82
2021/03/16 02:37:54;;;;;;;;;;;;;;;-0.81;99.07;93227.59;1048246;56;20224;-81
2021/03/16 02:38:55;;;;;;;;;;;;;;;-0.81;98.37;93224.22;1046374;56;20286;-81
2021/03/16 02:39:56;;;;;;;;;;;;;;;-0.74;97.28;93223.63;1047600;56;20203;-83
2021/03/16 02:40:58;;;;;;;;;;;;;;;-0.79;98.10;93220.16;1048581;56;20570;-81
2021/03/16 02:41:59;;;;;;;;;;;;;;;-0.84;98.77;93224.87;1046320;57;20211;-83
2021/03/16 02:43:01;;;;;;;;;;;;;;;-0.87;98.70;93220.34;1046003;56;20184;-81
2021/03/16 02:44:01;;;;;;;;;;;;;;;-0.87;98.90;93217.72;1052061;56;20231;-82
2021/03/16 02:45:03;;;;;;;;;;;;;;;-0.92;99.22;93216.09;1048149;56;20160;-81
2021/03/16 02:46:05;;;;;;;;;;;;;;;-0.91;99.41;93219.50;1045816;56;20204;-80
2021/03/16 02:47:06;;;;;;;;;;;;;;;-0.82;98.84;93218.19;1050648;56;20187;-80
2021/03/16 02:48:08;;;;;;;;;;;;;;;-0.81;98.17;93218.97;1045898;57;20267;-81
2021/03/16 02:49:09;;;;;;;;;;;;;;;-0.84;98.39;93228.25;1044120;56;20172;-84
2021/03/16 02:50:10;;;;;;;;;;;;;;;-0.84;98.59;93230.13;1045856;56;20335;-81
2021/03/16 02:51:11;;;;;;;;;;;;;;;-0.89;98.87;93220.66;1046931;56;20733;-81
2021/03/16 02:52:12;;;;;;;;;;;;;;;-0.89;98.92;93228.53;1048177;56;20212;-83
2021/03/16 02:53:13;;;;;;;;;;;;;;;-0.85;99.04;93228.59;1050468;56;21100;-81
2021/03/16 02:54:14;;;;;;;;;;;;;;;-0.82;98.44;93233.94;1047920;56;20463;-83
2021/03/16 02:55:15;;;;;;;;;;;;;;;-0.88;97.17;93216.16;1049205;56;20677;-82
2021/03/16 02:56:17;;;;;;;;;;;;;;;-0.87;98.18;93228.19;1047017;56;20230;-81
2021/03/16 02:57:18;;;;;;;;;;;;;;;-0.84;97.82;93228.25;1048177;56;20662;-81
2021/03/16 02:58:19;;;;;;;;;;;;;;;-0.88;98.37;93224.03;1050542;56;20247;-81
2021/03/16 02:59:20;;;;;;;;;;;;;;;-0.92;99.40;93221.34;1046654;56;20228;-82
2021/03/16 03:00:22;;;;;;;;;;;;;;;-0.92;99.43;93228.44;1049892;56;20666;-82
2021/03/16 03:01:23;;;;;;;;;;;;;;;-0.90;98.39;93226.25;1049622;56;20203;-81
2021/03/16 03:02:24;;;;;;;;;;;;;;;-0.94;98.35;93225.41;1044943;56;20208;-80
2021/03/16 03:03:24;;;;;;;;;;;;;;;-0.84;98.28;93222.25;1044612;56;20361;-81
2021/03/16 03:04:26;;;;;;;;;;;;;;;-0.83;98.91;93226.41;1042717;56;20196;-81
2021/03/16 03:05:27;;;;;;;;;;;;;;;-0.84;99.42;93233.50;1048948;56;20263;-82
2021/03/16 03:06:28;;;;;;;;;;;;;;;-0.92;98.55;93223.97;1049295;56;20692;-82
2021/03/16 03:07:29;;;;;;;;;;;;;;;-0.90;98.25;93229.62;1042606;57;20253;-82
2021/03/16 03:08:29;;;;;;;;;;;;;;;-0.85;98.01;93237.25;1041775;57;20165;-82
2021/03/16 03:09:31;;;;;;;;;;;;;;;-0.84;98.24;93230.13;1043701;57;20305;-83
2021/03/16 03:10:31;;;;;;;;;;;;;;;-0.84;98.33;93248.50;1045829;56;20239;-81
2021/03/16 03:11:33;;;;;;;;;;;;;;;-0.92;98.33;93231.06;1043362;57;20216;-82
2021/03/16 03:12:33;;;;;;;;;;;;;;;-0.92;98.07;93236.31;1041827;57;20219;-81
2021/03/16 03:13:33;;;;;;;;;;;;;;;-0.89;97.94;93248.75;1041796;57;20157;-82
2021/03/16 03:14:36;;;;;;;;;;;;;;;-0.96;98.31;93248.59;1041927;57;20615;-81
2021/03/16 03:15:36;;;;;;;;;;;;;;;-0.90;98.13;93240.13;1043679;57;20694;-81
2021/03/16 03:16:36;;;;;;;;;;;;;;;-0.88;98.05;93240.56;1045676;56;20224;-81
2021/03/16 03:17:37;;;;;;;;;;;;;;;-0.92;97.76;93250.22;1050891;56;20141;-82
2021/03/16 03:18:37;;;;;;;;;;;;;;;-0.94;98.10;93251.62;1049827;56;21178;-82
2021/03/16 03:19:37;;;;;;;;;;;;;;;-0.96;98.88;93249.38;1042306;57;20153;-80
2021/03/16 03:20:38;;;;;;;;;;;;;;;-0.92;98.83;93244.97;1042936;57;20185;-82
2021/03/16 03:21:42;;;;;;;;;;;;;;;-0.93;98.87;93247.91;1044060;57;20817;-80
2021/03/16 03:22:43;;;;;;;;;;;;;;;-0.95;98.81;93244.88;1043633;57;20129;-82
2021/03/16 03:23:46;;;;;;;;;;;;;;;-0.86;98.87;93256.72;1043875;57;20266;-81
2021/03/16 03:24:51;;;;;;;;;;;;;;;-0.81;98.03;93255.69;1045704;56;20224;-82
2021/03/16 03:25:56;;;;;;;;;;;;;;;-0.83;97.43;93266.53;1045677;57;20231;-82
2021/03/16 03:26:59;;;;;;;;;;;;;;;-0.85;96.34;93254.84;1043922;56;20242;-81
2021/03/16 03:28:09;;;;;;;;;;;;;;;-0.85;96.50;93257.47;1047567;56;20204;-81
2021/03/16 03:29:11;;;;;;;;;;;;;;;-0.86;97.30;93251.47;1043686;57;20179;-82
2021/03/16 03:30:12;;;;;;;;;;;;;;;-0.96;97.81;93262.47;1044243;56;20818;-81
2021/03/16 03:31:13;;;;;;;;;;;;;;;-0.94;98.20;93267.38;1047103;56;20196;-82
2021/03/16 03:32:16;;;;;;;;;;;;;;;-0.90;98.41;93255.13;1043754;57;20775;-82
2021/03/16 03:33:18;;;;;;;;;;;;;;;-0.90;98.83;93266.38;1043494;56;20224;-82
2021/03/16 03:34:19;;;;;;;;;;;;;;;-0.93;97.72;93269.66;1045231;57;20164;-80
2021/03/16 03:35:20;;;;;;;;;;;;;;;-0.90;97.51;93270.84;1046105;56;20245;-83
2021/03/16 03:36:22;;;;;;;;;;;;;;;-0.97;97.81;93268.81;1049174;56;21340;-82
2021/03/16 03:37:23;;;;;;;;;;;;;;;-0.91;97.14;93270.09;1050326;56;20708;-82
2021/03/16 03:38:25;;;;;;;;;;;;;;;-0.94;96.53;93276.00;1044319;57;20364;-82
2021/03/16 03:39:27;;;;;;;;;;;;;;;-0.94;95.85;93268.13;1045364;56;20248;-84
2021/03/16 03:40:28;;;;;;;;;;;;;;;-0.92;95.60;93271.19;1048886;56;20810;-84
2021/03/16 03:41:29;;;;;;;;;;;;;;;-0.97;96.62;93270.69;1046776;57;20193;-80
2021/03/16 03:42:30;;;;;;;;;;;;;;;-0.91;96.67;93279.84;1045023;57;20219;-80
2021/03/16 03:43:32;;;;;;;;;;;;;;;-0.94;96.80;93277.87;1045582;57;20203;-80
2021/03/16 03:44:33;;;;;;;;;;;;;;;-0.98;97.03;93277.78;1046115;56;20191;-81
2021/03/16 03:45:35;;;;;;;;;;;;;;;-1.00;96.78;93280.00;1048011;56;20188;-81
2021/03/16 03:46:37;;;;;;;;;;;;;;;-0.97;97.12;93281.16;1047503;56;20228;-82
2021/03/16 03:47:40;;;;;;;;;;;;;;;-0.92;97.56;93280.91;1050098;56;20217;-81
2021/03/16 03:48:42;;;;;;;;;;;;;;;-0.93;97.75;93285.41;1045957;57;20195;-81
2021/03/16 03:49:43;;;;;;;;;;;;;;;-1.01;97.65;93278.44;1043436;56;20162;-84
2021/03/16 03:50:44;;;;;;;;;;;;;;;-0.95;97.07;93285.00;1047737;56;20185;-82
2021/03/16 03:51:45;;;;;;;;;;;;;;;-0.93;96.75;93287.25;1045142;57;20649;-81
2021/03/16 03:52:46;;;;;;;;;;;;;;;-0.95;96.52;93287.63;1046190;57;20204;-80
2021/03/16 03:53:47;;;;;;;;;;;;;;;-0.93;97.11;93290.66;1046083;57;20212;-82
2021/03/16 03:54:48;;;;;;;;;;;;;;;-0.93;97.99;93284.63;1045865;57;20224;-79
2021/03/16 03:55:50;;;;;;;;;;;;;;;-0.94;96.30;93289.13;1046102;57;20219;-81
2021/03/16 03:56:51;;;;;;;;;;;;;;;-0.93;96.53;93290.66;1044034;57;20272;-82
2021/03/16 03:57:52;;;;;;;;;;;;;;;-1.00;97.15;93300.97;1046395;56;20188;-82
2021/03/16 03:58:53;;;;;;;;;;;;;;;-1.03;96.74;93294.53;1048522;56;20204;-81
2021/03/16 03:59:54;;;;;;;;;;;;;;;-1.05;96.56;93291.50;1045988;57;20685;-83
2021/03/16 04:00:55;;;;;;;;;;;;;;;-1.07;96.88;93301.56;1042857;57;20249;-80
2021/03/16 04:01:56;;;;;;;;;;;;;;;-1.05;97.17;93303.88;1045364;57;20572;-80
2021/03/16 04:02:59;;;;;;;;;;;;;;;-0.99;96.21;93307.00;1045112;57;20176;-81
2021/03/16 04:04:00;;;;;;;;;;;;;;;-1.03;96.94;93307.66;1046430;56;20794;-80
2021/03/16 04:05:00;;;;;;;;;;;;;;;-0.95;96.16;93310.47;1046168;56;20189;-80
2021/03/16 04:06:01;;;;;;;;;;;;;;;-0.89;96.23;93303.84;1043702;56;20927;-79
2021/03/16 04:07:01;;;;;;;;;;;;;;;-0.85;94.45;93312.56;1047998;56;20185;-81
2021/03/16 04:08:03;;;;;;;;;;;;;;;-0.90;94.86;93313.59;1046296;56;20193;-82
2021/03/16 04:09:04;;;;;;;;;;;;;;;-1.01;95.82;93315.19;1049738;56;20195;-81
2021/03/16 04:10:06;;;;;;;;;;;;;;;-1.03;96.35;93312.16;1047879;56;20153;-81
2021/03/16 04:11:06;;;;;;;;;;;;;;;-1.04;96.20;93321.12;1046444;56;20248;-82
2021/03/16 04:12:08;;;;;;;;;;;;;;;-0.98;96.45;93325.00;1046823;56;20228;-81
2021/03/16 04:13:09;;;;;;;;;;;;;;;-1.04;96.22;93329.00;1046772;56;20202;-81
2021/03/16 04:14:10;;;;;;;;;;;;;;;-0.99;96.29;93325.34;1047617;56;20192;-83
2021/03/16 04:15:14;;;;;;;;;;;;;;;-1.09;96.85;93322.13;1044406;57;20220;-82
2021/03/16 04:16:16;;;;;;;;;;;;;;;-0.97;97.33;93321.28;1041579;57;20187;-82
2021/03/16 04:17:17;;;;;;;;;;;;;;;-1.04;96.47;93329.75;1046429;56;20153;-81
2021/03/16 04:18:17;;;;;;;;;;;;;;;-1.07;96.39;93325.16;1044969;57;20181;-82
2021/03/16 04:19:18;;;;;;;;;;;;;;;-1.11;95.95;93318.31;1046428;56;20253;-82
2021/03/16 04:20:19;;;;;;;;;;;;;;;-1.06;95.45;93333.78;1049331;56;20175;-81
2021/03/16 04:21:20;;;;;;;;;;;;;;;-1.05;95.24;93317.75;1050929;56;20832;-80
2021/03/16 04:22:21;;;;;;;;;;;;;;;-1.02;95.95;93327.53;1046009;57;20900;-80
2021/03/16 04:23:22;;;;;;;;;;;;;;;-1.02;96.63;93332.78;1047473;56;20725;-81
2021/03/16 04:24:22;;;;;;;;;;;;;;;-1.03;95.67;93328.62;1048254;56;20184;-81
2021/03/16 04:25:23;;;;;;;;;;;;;;;-1.06;95.63;93325.91;1045596;56;20204;-81
2021/03/16 04:26:23;;;;;;;;;;;;;;;-1.11;95.33;93324.31;1046376;56;20646;-82
2021/03/16 04:27:24;;;;;;;;;;;;;;;-1.03;94.65;93328.62;1045221;57;20169;-81
2021/03/16 04:28:25;;;;;;;;;;;;;;;-0.93;94.01;93330.00;1045194;56;20196;-81
2021/03/16 04:29:26;;;;;;;;;;;;;;;-0.97;94.44;93329.16;1047444;56;20289;-82
2021/03/16 04:30:26;;;;;;;;;;;;;;;-1.00;94.61;93331.69;1045633;57;20172;-81
2021/03/16 04:31:26;;;;;;;;;;;;;;;-1.10;96.23;93331.09;1048806;56;20642;-80
2021/03/16 04:32:27;;;;;;;;;;;;;;;-1.02;96.07;93330.16;1047476;56;20172;-82
2021/03/16 04:33:27;;;;;;;;;;;;;;;-1.03;95.96;93333.13;1047179;56;20232;-81
2021/03/16 04:34:28;;;;;;;;;;;;;;;-1.14;96.70;93335.50;1048629;56;20200;-82
2021/03/16 04:35:28;;;;;;;;;;;;;;;-1.11;95.93;93345.28;1045257;56;20630;-82
2021/03/16 04:36:29;;;;;;;;;;;;;;;-1.13;96.20;93336.25;1048427;56;20265;-82
2021/03/16 04:37:29;;;;;;;;;;;;;;;-1.18;95.83;93347.75;1048879;56;20259;-81
2021/03/16 04:38:29;;;;;;;;;;;;;;;-1.07;95.15;93340.91;1046912;56;20185;-82
2021/03/16 04:39:30;;;;;;;;;;;;;;;-1.14;94.02;93348.59;1049932;56;20655;-82
2021/03/16 04:40:30;;;;;;;;;;;;;;;-1.11;94.67;93353.16;1047627;56;20216;-81
2021/03/16 04:41:30;;;;;;;;;;;;;;;-1.10;94.96;93353.91;1045310;57;20204;-81
2021/03/16 04:42:31;;;;;;;;;;;;;;;-0.96;95.63;93349.06;1049276;56;20180;-81
2021/03/16 04:43:31;;;;;;;;;;;;;;;-0.97;93.59;93346.75;1049613;56;20626;-81
2021/03/16 04:44:32;;;;;;;;;;;;;;;-0.98;94.23;93347.84;1046071;56;20211;-81
2021/03/16 04:45:32;;;;;;;;;;;;;;;-1.05;94.81;93357.09;1049483;56;20195;-79
2021/03/16 04:46:32;;;;;;;;;;;;;;;-0.98;94.96;93346.00;1046684;56;20989;-82
2021/03/16 04:47:33;;;;;;;;;;;;;;;-1.09;95.81;93358.84;1042871;56;20162;-79
2021/03/16 04:48:33;;;;;;;;;;;;;;;-0.94;94.78;93352.09;1047014;56;20180;-80
2021/03/16 04:49:33;;;;;;;;;;;;;;;-1.00;95.48;93358.69;1048052;56;20168;-81
2021/03/16 04:50:33;;;;;;;;;;;;;;;-1.00;96.22;93352.69;1047188;56;20175;-80
2021/03/16 04:51:34;;;;;;;;;;;;;;;-1.03;96.78;93360.13;1044797;57;20180;-80
2021/03/16 04:52:34;;;;;;;;;;;;;;;-1.04;95.68;93348.09;1045699;57;20192;-82
2021/03/16 04:53:35;;;;;;;;;;;;;;;-1.06;96.53;93355.53;1049741;56;20171;-82
2021/03/16 04:54:35;;;;;;;;;;;;;;;-1.05;95.74;93353.69;1047765;56;20180;-81
2021/03/16 04:55:35;;;;;;;;;;;;;;;-1.00;95.50;93345.59;1044604;56;20172;-80
2021/03/16 04:56:36;;;;;;;;;;;;;;;-0.92;93.84;93351.75;1048564;56;20271;-81
2021/03/16 04:57:36;;;;;;;;;;;;;;;-1.01;95.34;93351.91;1050026;56;21059;-81
2021/03/16 04:58:37;;;;;;;;;;;;;;;-1.02;94.67;93355.63;1048037;56;20650;-81
2021/03/16 04:59:37;;;;;;;;;;;;;;;-1.05;93.35;93357.09;1047046;56;20717;-82
2021/03/16 05:00:37;;;;;;;;;;;;;;;-1.04;94.13;93358.59;1048315;56;20245;-81
2021/03/16 05:01:38;;;;;;;;;;;;;;;-1.00;93.35;93353.44;1047558;56;20227;-81
2021/03/16 05:02:38;;;;;;;;;;;;;;;-1.04;94.15;93358.59;1042342;57;20161;-81
2021/03/16 05:03:38;;;;;;;;;;;;;;;-1.12;95.02;93349.03;1043765;57;20295;-81
2021/03/16 05:04:39;;;;;;;;;;;;;;;-1.11;95.34;93347.91;1046043;57;20172;-82
2021/03/16 05:05:39;;;;;;;;;;;;;;;-1.07;94.41;93348.00;1043829;57;20225;-82
2021/03/16 05:06:39;;;;;;;;;;;;;;;-1.12;94.72;93351.66;1046839;56;21121;-80
2021/03/16 05:07:40;;;;;;;;;;;;;;;-1.14;94.79;93350.44;1044598;57;20674;-81
2021/03/16 05:08:40;;;;;;;;;;;;;;;-1.15;95.76;93341.06;1041760;57;21065;-80
2021/03/16 05:09:40;;;;;;;;;;;;;;;-1.16;95.51;93342.91;1045899;56;23220;-81
2021/03/16 05:10:41;;;;;;;;;;;;;;;-1.13;95.89;93341.50;1047195;56;20200;-81
2021/03/16 05:11:41;;;;;;;;;;;;;;;-1.12;96.25;93346.41;1046865;56;20203;-80
2021/03/16 05:12:41;;;;;;;;;;;;;;;-1.11;96.32;93353.16;1048211;56;20207;-81
2021/03/16 05:13:42;;;;;;;;;;;;;;;-1.00;94.99;93350.06;1043810;57;20680;-82
2021/03/16 05:14:42;;;;;;;;;;;;;;;-1.08;93.95;93352.50;1041098;57;20181;-81
2021/03/16 05:15:43;;;;;;;;;;;;;;;-1.14;95.14;93347.81;1042400;57;20197;-81
2021/03/16 05:16:43;;;;;;;;;;;;;;;-1.14;96.39;93350.44;1045586;56;20259;-80
2021/03/16 05:17:43;;;;;;;;;;;;;;;-1.15;96.06;93354.94;1048538;56;20278;-82
2021/03/16 05:18:43;;;;;;;;;;;;;;;-1.16;94.68;93352.66;1045772;56;20271;-82